• Join FlightAware (Why Join?)
  • Login
  • US Flag 
Trick or treat! (Boo!!) 
04:02PM EDT


 

Airport Tracker/Info


-or-


 

Live Flight TrackerFlight Track Log ✈ N33KC ✈ 09-Mar-2014 ✈ KGCN - KSFF

Flight Track Log - Related Links

Times and Time Zones

All times are in EDT time to prevent confusion due to time zone crossing. See the N33KC flight status page for this flight to view local times or setup timezone preferences in your user account.

Time Position Orientation Groundspeed Altitude Reporting Facility
EDT Latitude Longitude Course Direction KTS MPH feet Rate Location/Type
06:07PM 36.0067 -112.2828 346° North 154 177 9,900  Level Salt Lake Center
06:08PM 36.0192 -112.3369 286° West 158 182 10,300 300 Climbing Salt Lake Center
06:09PM 36.0364 -112.3994 289° West 171 197 10,500 240 Climbing Los Angeles Center
06:10PM 36.0522 -112.4597 288° West 179 206 10,800 240 Climbing Los Angeles Center
06:11PM 36.0672 -112.5175 288° West 179 206 11,100 240 Climbing Los Angeles Center
06:13PM 36.2013 -112.2287 346° North  Level FlightAware Approximate
06:13PM 36.0869 -112.5872 289° West 178 205 11,400  Level Los Angeles Center
06:14PM 36.1078 -112.6481 293° West 189 217 11,400  Level Los Angeles Center
06:15PM 36.1367 -112.7044 302° West 194 223 11,400  Level Los Angeles Center
06:16PM 36.1831 -112.7356 332° Northwest 189 217 11,400  Level Los Angeles Center
06:17PM 36.2319 -112.7556 342° North 186 214 11,400  Level Los Angeles Center
06:18PM 36.2842 -112.7667 350° North 189 217 11,400 240 Level Los Angeles Center
06:19PM 36.3442 -112.7864 345° North 187 215 12,000 600 Climbing Los Angeles Center
06:20PM 36.3878 -112.8022 344° North 171 197 12,700 660 Climbing Los Angeles Center
06:21PM 36.4308 -112.8161 345° North 162 186 13,400 600 Climbing Los Angeles Center
06:22PM 36.4744 -112.8322 343° North 163 188 14,000 540 Climbing Los Angeles Center
06:23PM 36.5189 -112.8461 346° North 164 189 14,600 540 Climbing Los Angeles Center
06:24PM 36.5650 -112.8631 344° North 171 197 15,200 600 Climbing Los Angeles Center
06:25PM 36.6194 -112.8811 345° North 170 196 15,900 600 Climbing Los Angeles Center
06:26PM 36.6644 -112.8961 345° North 167 192 16,500 480 Climbing Los Angeles Center
06:27PM 36.7097 -112.9108 345° North 167 192 17,000 480 Climbing Los Angeles Center
06:28PM 36.7553 -112.9264 345° North 169 194 17,500 420 Climbing Los Angeles Center
06:29PM 36.8006 -112.9403 346° North 168 193 17,900 480 Climbing Los Angeles Center
06:30PM 36.8450 -112.9569 343° North 166 191 18,500 480 Climbing Los Angeles Center
06:31PM 36.8983 -112.9742 346° North 166 191 18,900 240 Climbing Los Angeles Center
06:32PM 36.9464 -112.9906 345° North 175 201 19,000  Climbing Los Angeles Center
06:33PM 36.9953 -113.0081 344° North 180 207 19,000  Level Los Angeles Center
06:34PM 37.0442 -113.0250 345° North 182 209 19,000  Level Los Angeles Center
06:35PM 37.0944 -113.0414 345° North 184 212 19,000  Level Los Angeles Center
06:36PM 37.1450 -113.0592 344° North 187 215 19,000  Level Los Angeles Center
06:37PM 37.2050 -113.0794 345° North 186 214 19,000  Level Los Angeles Center
06:38PM 37.2556 -113.0961 345° North 187 215 19,000  Level Los Angeles Center
06:39PM 37.3056 -113.1133 345° North 186 214 19,100  Climbing Los Angeles Center
06:40PM 37.3439 -113.1264 345° North 185 213 19,100  Level Salt Lake Center
06:42PM 37.4042 -113.1472 345° North 184 212 19,100 -60 Level Los Angeles Center
06:43PM 37.4531 -113.1650 344° North 183 211 19,000 -120 Descending Los Angeles Center
06:44PM 37.5139 -113.1850 345° North 188 216 18,900 -60 Descending Los Angeles Center
06:45PM 37.5650 -113.2033 344° North 190 219 18,900  Level Los Angeles Center
06:46PM 37.6164 -113.2200 346° North 189 217 18,900  Level Los Angeles Center
06:46PM 37.6561 -113.2347 344° North 190 219 18,900  Level Salt Lake Center
06:48PM 37.7069 -113.2522 345° North 189 217 18,900  Level Salt Lake Center
06:49PM 37.7581 -113.2700 345° North 189 217 18,900  Level Salt Lake Center
06:50PM 37.8086 -113.2881 344° North 189 217 18,900  Level Salt Lake Center
06:51PM 37.8594 -113.3067 344° North 189 217 19,000  Climbing Salt Lake Center
06:52PM 37.9197 -113.3269 345° North 188 216 19,000  Level Salt Lake Center
06:53PM 37.9708 -113.3453 344° North 188 216 19,000  Level Salt Lake Center
06:54PM 38.0217 -113.3633 344° North 189 217 19,000  Level Salt Lake Center
06:55PM 38.0725 -113.3808 345° North 189 217 19,000  Level Salt Lake Center
06:56PM 38.1239 -113.3992 344° North 190 219 19,000  Level Salt Lake Center
06:57PM 38.1758 -113.4181 344° North 192 221 19,000  Level Salt Lake Center
06:58PM 38.2269 -113.4361 344° North 192 221 19,000  Level Salt Lake Center
06:59PM 38.2794 -113.4553 344° North 193 222 19,000  Level Salt Lake Center
07:00PM 38.3411 -113.4764 345° North 192 221 19,000  Level Salt Lake Center
07:01PM 38.3914 -113.4944 344° North 191 220 19,000  Level Salt Lake Center
07:02PM 38.4447 -113.5114 346° North 193 222 19,000  Level Salt Lake Center
07:03PM 38.4969 -113.5300 344° North 195 224 19,000  Level Salt Lake Center
07:04PM 38.5503 -113.5489 345° North 196 226 19,000  Level Salt Lake Center
07:05PM 38.6044 -113.5678 345° North 200 230 19,100  Climbing Salt Lake Center
07:06PM 38.6567 -113.5864 344° North 197 227 19,100  Level Salt Lake Center
07:07PM 38.7086 -113.6081 342° North 196 226 19,100  Level Salt Lake Center
07:08PM 38.7728 -113.6322 344° North 198 228 19,100  Level Salt Lake Center
07:09PM 38.8286 -113.6522 344° North 202 232 19,100 -60 Level Salt Lake Center
07:10PM 38.8842 -113.6717 345° North 205 236 19,000 -60 Descending Salt Lake Center
07:11PM 38.9383 -113.6850 349° North 201 231 19,000  Level Salt Lake Center
07:12PM 38.9886 -113.7031 344° North 191 220 19,000  Level Salt Lake Center
07:13PM 39.0397 -113.7211 345° North 190 219 19,000  Level Salt Lake Center
07:14PM 39.0931 -113.7392 345° North 195 224 19,000  Level Salt Lake Center
07:15PM 39.1475 -113.7594 344° North 201 231 19,000  Level Salt Lake Center
07:16PM 39.2125 -113.7831 344° North 202 232 19,000  Level Salt Lake Center
07:17PM 39.2675 -113.8025 345° North 205 236 19,000  Level Salt Lake Center
07:18PM 39.3197 -113.8231 343° North 199 229 19,000  Level Salt Lake Center
07:19PM 39.3731 -113.8408 346° North 199 229 19,000  Level Salt Lake Center
07:20PM 39.4264 -113.8606 344° North 200 230 19,000  Level Salt Lake Center
07:21PM 39.4792 -113.8803 344° North 198 228 19,000  Level Salt Lake Center
07:22PM 39.5328 -113.9003 344° North 200 230 19,000  Level Salt Lake Center
07:23PM 39.5853 -113.9186 345° North 197 227 19,000  Level Salt Lake Center
07:24PM 39.6475 -113.9411 344° North 195 224 19,000  Level Salt Lake Center
07:25PM 39.6983 -113.9606 344° North 192 221 19,100 240 Climbing Salt Lake Center
07:27PM 39.7450 -113.9772 345° North 180 207 19,600 420 Climbing Salt Lake Center
07:28PM 39.7875 -113.9925 345° North 164 189 20,000 300 Climbing Salt Lake Center
07:29PM 39.8294 -114.0083 344° North 159 183 20,300 240 Climbing Salt Lake Center
07:30PM 39.8717 -114.0236 344° North 157 181 20,600 240 Climbing Salt Lake Center
07:31PM 39.9139 -114.0392 344° North 158 182 20,900 120 Climbing Salt Lake Center
07:32PM 39.9681 -114.0597 344° North 168 193 20,900  Level Salt Lake Center
07:33PM 40.0147 -114.0769 344° North 174 200 21,000  Climbing Salt Lake Center
07:34PM 40.0642 -114.0953 344° North 183 211 21,000  Level Salt Lake Center
07:35PM 40.1172 -114.1153 344° North 195 224 21,000  Level Salt Lake Center
07:36PM 40.1706 -114.1339 345° North 197 227 21,000  Level Salt Lake Center
07:37PM 40.2236 -114.1544 344° North 198 228 21,000  Level Salt Lake Center
07:38PM 40.2767 -114.1747 344° North 200 230 21,000  Level Salt Lake Center
07:39PM 40.3306 -114.1947 344° North 201 231 21,000  Level Salt Lake Center
07:40PM 40.3956 -114.2183 345° North 203 234 21,000  Level Salt Lake Center
07:41PM 40.4475 -114.2381 344° North 198 228 21,000  Level Salt Lake Center
07:42PM 40.5025 -114.2589 344° North 202 232 21,000  Level Salt Lake Center
07:43PM 40.5572 -114.2794 344° North 206 237 21,000  Level Salt Lake Center
07:44PM 40.6050 -114.2983 343° North 194 223 21,000  Level Salt Lake Center
07:45PM 40.6533 -114.3164 344° North 186 214 21,000  Level Salt Lake Center
07:46PM 40.7006 -114.3336 345° North 182 209 21,000  Level Salt Lake Center
07:47PM 40.7550 -114.3547 344° North 174 200 21,000  Level Salt Lake Center
07:48PM 40.8017 -114.3728 344° North 174 200 21,000  Level Salt Lake Center
07:49PM 40.8508 -114.3919 344° North 179 206 21,000  Level Salt Lake Center
07:50PM 40.9017 -114.4111 344° North 185 213 21,000  Level Salt Lake Center
07:51PM 40.9506 -114.4294 344° North 185 213 21,000  Level Salt Lake Center
07:52PM 40.9967 -114.4464 344° North 179 206 21,000  Level Salt Lake Center
07:53PM 41.0419 -114.4658 342° North 168 193 21,000  Level Salt Lake Center
07:54PM 41.0836 -114.4808 345° North 167 192 21,000  Level Salt Lake Center
07:55PM 41.1394 -114.5014 345° North 171 197 21,000  Level Salt Lake Center
07:56PM 41.1836 -114.5192 343° North 168 193 21,000  Level Salt Lake Center
07:57PM 41.2306 -114.5369 344° North 171 197 21,000  Level Salt Lake Center
07:58PM 41.2792 -114.5561 343° North 178 205 21,000  Level Salt Lake Center
07:59PM 41.3303 -114.5761 344° North 186 214 21,000  Level Salt Lake Center
08:00PM 41.3803 -114.5953 344° North 188 216 21,000  Level Salt Lake Center
08:01PM 41.4261 -114.6119 345° North 180 207 21,000  Level Salt Lake Center
08:02PM 41.4750 -114.6322 343° North 161 185 21,000  Level Salt Lake Center
08:03PM 41.5175 -114.6489 344° North 159 183 21,000  Level Salt Lake Center
08:05PM 41.5672 -114.6681 344° North 175 201 21,000  Level Salt Lake Center
08:06PM 41.6156 -114.6864 344° North 182 209 21,100  Climbing Salt Lake Center
08:07PM 41.6714 -114.7075 344° North 187 215 21,100  Level Salt Lake Center
08:08PM 41.7236 -114.7286 343° North 199 229 21,100  Level Salt Lake Center
08:09PM 41.7842 -114.7525 344° North 201 231 21,100  Level Salt Lake Center
08:10PM 41.8342 -114.7728 343° North 200 230 21,100 -60 Level Salt Lake Center
08:11PM 41.8872 -114.7942 343° North 205 236 21,000 -120 Descending Salt Lake Center
08:12PM 41.9472 -114.8169 344° North 199 229 20,900 -60 Descending Salt Lake Center
08:13PM 41.9994 -114.8394 342° North 205 236 20,900 -60 Level Salt Lake Center
08:14PM 42.0597 -114.8619 345° North 204 235 20,800  Descending Salt Lake Center
08:15PM 42.1086 -114.8792 345° North 195 224 20,900 60 Climbing Salt Lake Center
08:16PM 42.1653 -114.9056 341° North 194 223 21,000  Climbing Salt Lake Center
08:17PM 42.2164 -114.9253 344° North 190 219 21,000  Level Salt Lake Center
08:18PM 42.2689 -114.9464 343° North 199 229 21,000  Level Salt Lake Center
08:19PM 42.3244 -114.9689 343° North 207 238 21,000  Level Salt Lake Center
08:20PM 42.3783 -114.9892 344° North 202 232 21,000  Level Salt Lake Center
08:21PM 42.4322 -115.0114 343° North 201 231 21,000  Level Salt Lake Center
08:22PM 42.4958 -115.0375 343° North 199 229 21,000  Level Salt Lake Center
08:23PM 42.5492 -115.0581 344° North 200 230 21,000  Level Salt Lake Center
08:24PM 42.6019 -115.0800 343° North 199 229 21,000  Level Salt Lake Center
08:25PM 42.6536 -115.1000 344° North 193 222 21,000  Level Salt Lake Center
08:26PM 42.7061 -115.1214 343° North 197 227 21,000  Level Salt Lake Center
08:27PM 42.7578 -115.1433 343° North 196 226 21,000  Level Salt Lake Center
08:28PM 42.8103 -115.1636 344° North 195 224 21,000  Level Salt Lake Center
08:29PM 42.8617 -115.1856 343° North 193 222 21,000  Level Salt Lake Center
08:30PM 42.9233 -115.2097 344° North 192 221 21,000  Level Salt Lake Center
08:31PM 42.9747 -115.2306 343° North 193 222 21,000  Level Salt Lake Center
08:32PM 43.0256 -115.2514 343° North 191 220 21,000  Level Salt Lake Center
08:33PM 43.0769 -115.2736 342° North 194 223 21,000  Level Salt Lake Center
08:34PM 43.1286 -115.2939 344° North 194 223 21,000  Level Salt Lake Center
08:35PM 43.1803 -115.3164 342° North 195 224 21,000  Level Salt Lake Center
08:36PM 43.2331 -115.3369 344° North 196 226 21,000  Level Salt Lake Center
08:37PM 43.2967 -115.3622 344° North 198 228 21,000  Level Salt Lake Center
08:38PM 43.3489 -115.3842 343° North 196 226 21,000  Level Salt Lake Center
08:39PM 43.4014 -115.4061 343° North 197 227 21,000  Level Salt Lake Center
08:40PM 43.4536 -115.4286 343° North 196 226 21,000  Level Salt Lake Center
08:42PM 43.5056 -115.4494 344° North 195 224 21,000  Level Salt Lake Center
08:43PM 43.5564 -115.4708 343° North 192 221 21,000  Level Salt Lake Center
08:44PM 43.6081 -115.4922 343° North 194 223 21,000  Level Salt Lake Center
08:45PM 43.6694 -115.5186 343° North 193 222 21,000  Level Salt Lake Center
08:46PM 43.7211 -115.5397 344° North 194 223 21,000  Level Salt Lake Center
08:47PM 43.7725 -115.5614 343° North 193 222 21,000  Level Salt Lake Center
08:48PM 43.8247 -115.5825 344° North 195 224 21,000  Level Salt Lake Center
08:49PM 43.8775 -115.6061 342° North 199 229 21,000  Level Salt Lake Center
08:50PM 43.9303 -115.6278 344° North 199 229 21,000  Level Salt Lake Center
08:51PM 43.9833 -115.6503 343° North 201 231 21,000  Level Salt Lake Center
08:52PM 44.0481 -115.6772 343° North 203 234 21,000  Level Salt Lake Center
08:53PM 44.1019 -115.6997 343° North 204 235 21,000  Level Salt Lake Center
08:54PM 44.1547 -115.7222 343° North 200 230 21,100  Climbing Salt Lake Center
08:55PM 44.2081 -115.7442 344° North 201 231 21,000  Descending Salt Lake Center
08:56PM 44.2592 -115.7658 343° North 197 227 21,100  Climbing Salt Lake Center
08:57PM 44.3106 -115.7875 343° North 195 224 21,100  Level Salt Lake Center
08:58PM 44.3633 -115.8106 343° North 197 227 21,100  Level Salt Lake Center
08:59PM 44.4264 -115.8372 343° North 199 229 21,100  Level Salt Lake Center
09:00PM 44.4778 -115.8606 342° North 197 227 21,100  Level Salt Lake Center
09:01PM 44.5292 -115.8811 344° North 195 224 21,100  Level Salt Lake Center
09:02PM 44.5803 -115.9036 343° North 195 224 21,100  Level Salt Lake Center
09:03PM 44.6300 -115.9258 342° North 191 220 21,100 -60 Level Salt Lake Center
09:04PM 44.6800 -115.9469 343° North 189 217 21,000 -60 Descending Salt Lake Center
09:05PM 44.7311 -115.9694 343° North 192 221 21,000  Level Salt Lake Center
09:06PM 44.7908 -115.9953 343° North 189 217 21,000  Level Salt Lake Center
09:07PM 44.8403 -116.0172 343° North 188 216 21,000  Level Salt Lake Center
09:08PM 44.8897 -116.0392 343° North 187 215 21,000  Level Salt Lake Center
09:09PM 44.9392 -116.0603 343° North 187 215 21,000  Level Salt Lake Center
09:10PM 44.9869 -116.0811 343° North 182 209 21,000  Level Salt Lake Center
09:11PM 45.0347 -116.1031 342° North 181 208 21,000  Level Salt Lake Center
09:12PM 45.0833 -116.1242 343° North 183 211 21,000  Level Salt Lake Center
09:13PM 45.1325 -116.1447 344° North 183 211 21,000  Level Salt Lake Center
09:14PM 45.1900 -116.1717 342° North 182 209 21,000  Level Salt Lake Center
09:15PM 45.2397 -116.1939 343° North 186 214 21,000  Level Salt Lake Center
09:16PM 45.2872 -116.2156 342° North 181 208 21,000  Level Salt Lake Center
09:17PM 45.3356 -116.2369 343° North 181 208 21,000  Level Salt Lake Center
09:18PM 45.3847 -116.2578 343° North 184 212 21,000  Level Salt Lake Center
09:19PM 45.4342 -116.2806 342° North 186 214 21,000  Level Salt Lake Center
09:20PM 45.4847 -116.3022 343° North 189 217 21,000  Level Salt Lake Center
09:21PM 45.5358 -116.3250 343° North 193 222 21,000  Level Salt Lake Center
09:22PM 45.5856 -116.3486 342° North 190 219 21,000  Level Salt Lake Center
09:23PM 45.6453 -116.3742 343° North 188 216 21,000  Level Salt Lake Center
09:25PM 45.6939 -116.3964 342° North 184 212 21,000  Level Salt Lake Center
09:26PM 45.7436 -116.4194 342° North 187 215 21,000  Level Salt Lake Center
09:27PM 45.7950 -116.4414 343° North 192 221 21,000  Level Salt Lake Center
09:28PM 45.8453 -116.4617 344° North 188 216 21,000  Level Salt Lake Center
09:29PM 45.8961 -116.4853 342° North 192 221 21,000  Level Salt Lake Center
09:30PM 45.9461 -116.5078 343° North 190 219 21,000  Level Salt Lake Center
09:31PM 46.0111 -116.5397 341° North 183 211 21,000  Level Seattle Center
09:32PM 46.0606 -116.5603 344° North 186 214 21,000  Level Seattle Center
09:33PM 46.1089 -116.5828 342° North 183 211 21,000  Level Seattle Center
09:34PM 46.1589 -116.6061 342° North 189 217 21,000  Level Seattle Center
09:35PM 46.2064 -116.6289 342° North 183 211 21,000  Level Seattle Center
09:36PM 46.2561 -116.6536 341° North 189 217 21,000  Level Seattle Center
09:37PM 46.3056 -116.6747 344° North 186 214 21,000  Level Seattle Center
09:38PM 46.3536 -116.6969 342° North 183 211 21,000  Level Seattle Center
09:39PM 46.4039 -116.7197 343° North 189 217 21,000  Level Seattle Center
09:40PM 46.4533 -116.7456 340° North 189 217 21,100 -240 Climbing Seattle Center
09:41PM 46.5147 -116.7694 345° North 190 219 20,600 -600 Descending Seattle Center
09:42PM 46.5689 -116.7961 341° North 203 234 20,000 -660 Descending Seattle Center
09:43PM 46.6247 -116.8208 343° North 210 242 19,300 -660 Descending Seattle Center
09:44PM 46.6792 -116.8511 339° North 212 244 18,700 -660 Descending Seattle Center
09:45PM 46.7353 -116.8772 342° North 213 245 18,000 -780 Descending Seattle Center
09:46PM 46.7922 -116.9061 341° North 216 249 17,200 -660 Descending Seattle Center
09:47PM 46.8467 -116.9369 339° North 213 245 16,700 -600 Descending Seattle Center
09:48PM 46.9047 -116.9631 343° North 218 251 16,000 -720 Descending Seattle Center
09:49PM 46.9606 -116.9894 342° North 213 245 15,300 -660 Descending Seattle Center
09:50PM 47.0169 -117.0167 342° North 212 244 14,700 -780 Descending Seattle Center
09:51PM 47.0725 -117.0411 343° North 210 242 13,800 -900 Descending Seattle Center
09:52PM 47.1281 -117.0667 343° North 208 239 12,900 -960 Descending Seattle Center
09:53PM 47.1836 -117.0931 342° North 210 242 11,900 -1,020 Descending Seattle Center
09:54PM 47.2389 -117.1169 344° North 208 239 10,900 -1,140 Descending Seattle Center
09:55PM 47.3011 -117.1447 343° North 205 236 9,700 -1,140 Descending Seattle Center
09:56PM 47.3594 -117.1717 343° North 204 235 8,600 -1,080 Descending Seattle Center
09:57PM 47.4122 -117.1964 342° North 200 230 7,600 -900 Descending Seattle Center
09:58PM 47.4650 -117.2022 356° North 192 221 6,900 -780 Descending Seattle Center
09:59PM 47.5175 -117.2039 359° North 190 219 6,100 -660 Descending Seattle Center
10:00PM 47.5683 -117.2097 356° North 186 214 5,600 -840 Descending Seattle Center
10:01PM 47.6158 -117.2136 357° North 171 197 4,500 -960 Descending Seattle Center
10:02PM 47.6611 -117.2297 347° North 162 186 3,700 -780 Descending Seattle Center
10:03PM 47.6933 -117.2558 331° Northwest 138 159 3,000 -600 Descending Seattle Center
10:04PM 47.6972 -117.2986 278° West 107 123 2,500 -540 Descending Seattle Center
10:05PM 47.6828 -117.3253 231° Southwest 96 110 2,000 -300 Descending Seattle Center
10:06PM 47.6803 -117.3242 163° South 41 47 2,000  Level Seattle Center